<?xml version="1.0" encoding="UTF-8" standalone="no" ?>
<gpx xmlns="http://www.topografix.com/GPX/1/1" xmlns:xsi="http://www.w3.org/2001/XMLSchema-instance" xsi:schemaLocation="http://www.topografix.com/GPX/1/1 http://www.topografix.com/GPX/1/1/gpx.xsd" version="1.1" creator="VisuGPX - https://www.visugpx.com">
  <metadata>
    <name>2026-03-23-46-Catus-Salvezou</name>
    <desc><![CDATA[Randonnée de 10 km pour environ 200m de dénivelé positif. Au Départ du lac Vert le sentier remonte le ruisseau sous un charmant sous-bois. la seule difficulté sera la montée vers le hameau de Salvezou, a voir la tour unique vestige de l'ancien château]]></desc>
  </metadata>
  <trk>
    <name><![CDATA[Catus BL 23-03-26]]></name>
    <desc><![CDATA[]]></desc>
    <trkseg>
      <trkpt lat="44.55211" lon="1.32727">
        <ele>157</ele>
      </trkpt>
      <trkpt lat="44.55132" lon="1.32807">
        <ele>159</ele>
        <time>2018-03-17T12:42:53Z</time>
      </trkpt>
      <trkpt lat="44.55046" lon="1.32766">
        <ele>162</ele>
        <time>2018-03-17T12:41:53Z</time>
      </trkpt>
      <trkpt lat="44.54991" lon="1.32743">
        <ele>163</ele>
        <time>2018-03-17T12:40:53Z</time>
      </trkpt>
      <trkpt lat="44.55123" lon="1.32931">
        <ele>168</ele>
        <time>2018-03-17T12:39:53Z</time>
      </trkpt>
      <trkpt lat="44.55229" lon="1.33048">
        <ele>171</ele>
        <time>2018-03-17T12:38:53Z</time>
      </trkpt>
      <trkpt lat="44.55321" lon="1.33237">
        <ele>177</ele>
        <time>2018-03-17T12:37:53Z</time>
      </trkpt>
      <trkpt lat="44.5544" lon="1.33452">
        <ele>179</ele>
        <time>2018-03-17T12:36:53Z</time>
      </trkpt>
      <trkpt lat="44.55529" lon="1.33688">
        <ele>169</ele>
        <time>2018-03-17T12:35:53Z</time>
      </trkpt>
      <trkpt lat="44.55518" lon="1.337">
        <ele>164</ele>
      </trkpt>
      <trkpt lat="44.55528" lon="1.3378">
        <ele>165</ele>
        <time>2018-03-17T12:33:53Z</time>
        <extensions>
          <visugpx:TrkExtension xmlns:visugpx="https://www.visugpx.com/editgpx/">
            <visugpx:node>1</visugpx:node>
            </visugpx:TrkExtension>
        </extensions>
      </trkpt>
      <trkpt lat="44.55545" lon="1.33848">
        <ele>169</ele>
        <time>2018-03-17T14:07:53Z</time>
      </trkpt>
      <trkpt lat="44.55571" lon="1.34001">
        <ele>170</ele>
        <time>2018-03-17T14:06:53Z</time>
      </trkpt>
      <trkpt lat="44.55532" lon="1.34017">
        <ele>177</ele>
        <time>2018-03-17T14:05:53Z</time>
      </trkpt>
      <trkpt lat="44.55551" lon="1.34202">
        <ele>180</ele>
        <time>2018-03-17T14:04:53Z</time>
      </trkpt>
      <trkpt lat="44.55557" lon="1.34384">
        <ele>182</ele>
        <time>2018-03-17T14:03:53Z</time>
      </trkpt>
      <trkpt lat="44.55575" lon="1.34415">
        <ele>180</ele>
        <time>2018-03-17T14:02:53Z</time>
      </trkpt>
      <trkpt lat="44.55587" lon="1.34594">
        <ele>185</ele>
        <time>2018-03-17T14:01:53Z</time>
      </trkpt>
      <trkpt lat="44.556" lon="1.34732">
        <ele>189</ele>
        <time>2018-03-17T14:00:53Z</time>
      </trkpt>
      <trkpt lat="44.55629" lon="1.34941">
        <ele>187</ele>
        <time>2018-03-17T13:59:53Z</time>
      </trkpt>
      <trkpt lat="44.55624" lon="1.35048">
        <ele>187</ele>
        <time>2018-03-17T13:58:53Z</time>
      </trkpt>
      <trkpt lat="44.55676" lon="1.35047">
        <ele>180</ele>
        <time>2018-03-17T13:57:53Z</time>
      </trkpt>
      <trkpt lat="44.55692" lon="1.35077">
        <ele>180</ele>
        <time>2018-03-17T13:56:53Z</time>
      </trkpt>
      <trkpt lat="44.55809" lon="1.35011">
        <ele>174</ele>
        <time>2018-03-17T13:55:53Z</time>
      </trkpt>
      <trkpt lat="44.55907" lon="1.34944">
        <ele>183</ele>
        <time>2018-03-17T13:54:53Z</time>
      </trkpt>
      <trkpt lat="44.56027" lon="1.34943">
        <ele>194</ele>
        <time>2018-03-17T13:53:53Z</time>
      </trkpt>
      <trkpt lat="44.5613" lon="1.34958">
        <ele>197</ele>
        <time>2018-03-17T13:52:53Z</time>
      </trkpt>
      <trkpt lat="44.5626" lon="1.34964">
        <ele>196</ele>
        <time>2018-03-17T13:51:53Z</time>
      </trkpt>
      <trkpt lat="44.56399" lon="1.34963">
        <ele>203</ele>
        <time>2018-03-17T13:50:53Z</time>
      </trkpt>
      <trkpt lat="44.56558" lon="1.35071">
        <ele>202</ele>
        <time>2018-03-17T13:49:53Z</time>
      </trkpt>
      <trkpt lat="44.5659" lon="1.3508">
        <ele>203</ele>
        <time>2018-03-17T13:48:53Z</time>
      </trkpt>
      <trkpt lat="44.56596" lon="1.35122">
        <ele>206</ele>
        <time>2018-03-17T13:47:53Z</time>
      </trkpt>
      <trkpt lat="44.56593" lon="1.35128">
        <ele>195.7</ele>
      </trkpt>
      <trkpt lat="44.56638" lon="1.35129">
        <ele>195.9</ele>
      </trkpt>
      <trkpt lat="44.56698" lon="1.35162">
        <ele>202.4</ele>
      </trkpt>
      <trkpt lat="44.56759" lon="1.35159">
        <ele>200.3</ele>
        <time>2018-03-17T13:46:53Z</time>
      </trkpt>
      <trkpt lat="44.56798" lon="1.35142">
        <ele>200.7</ele>
      </trkpt>
      <trkpt lat="44.56845" lon="1.35101">
        <ele>212</ele>
        <time>2018-03-17T13:45:53Z</time>
      </trkpt>
      <trkpt lat="44.56933" lon="1.35088">
        <ele>205.7</ele>
        <time>2018-03-17T13:44:53Z</time>
      </trkpt>
      <trkpt lat="44.57116" lon="1.35093">
        <ele>225</ele>
        <time>2018-03-17T13:43:53Z</time>
      </trkpt>
      <trkpt lat="44.57204" lon="1.35091">
        <ele>226</ele>
        <time>2018-03-17T13:42:53Z</time>
      </trkpt>
      <trkpt lat="44.57301" lon="1.35127">
        <ele>234</ele>
        <time>2018-03-17T13:41:53Z</time>
      </trkpt>
      <trkpt lat="44.57441" lon="1.35188">
        <ele>239</ele>
        <time>2018-03-17T13:40:53Z</time>
      </trkpt>
      <trkpt lat="44.57558" lon="1.3514">
        <ele>243</ele>
        <time>2018-03-17T13:39:53Z</time>
      </trkpt>
      <trkpt lat="44.57652" lon="1.35177">
        <ele>245</ele>
        <time>2018-03-17T13:38:53Z</time>
      </trkpt>
      <trkpt lat="44.577" lon="1.35158">
        <ele>253</ele>
        <time>2018-03-17T13:37:53Z</time>
      </trkpt>
      <trkpt lat="44.5779" lon="1.34978">
        <ele>272</ele>
        <time>2018-03-17T13:36:53Z</time>
      </trkpt>
      <trkpt lat="44.57898" lon="1.34971">
        <ele>277.3</ele>
        <time>2018-03-17T13:35:53Z</time>
      </trkpt>
      <trkpt lat="44.57947" lon="1.34952">
        <ele>284</ele>
        <time>2018-03-17T13:34:53Z</time>
      </trkpt>
      <trkpt lat="44.5798" lon="1.34962">
        <ele>286</ele>
        <time>2018-03-17T13:33:53Z</time>
      </trkpt>
      <trkpt lat="44.57977" lon="1.3493">
        <ele>288</ele>
        <time>2018-03-17T13:32:53Z</time>
      </trkpt>
      <trkpt lat="44.57947" lon="1.34926">
        <ele>286</ele>
        <time>2018-03-17T13:31:53Z</time>
      </trkpt>
      <trkpt lat="44.57949" lon="1.34849">
        <ele>287.5</ele>
      </trkpt>
      <trkpt lat="44.57954" lon="1.34805">
        <ele>290.3</ele>
      </trkpt>
      <trkpt lat="44.57947" lon="1.34758">
        <ele>297</ele>
        <time>2018-03-17T13:30:53Z</time>
      </trkpt>
      <trkpt lat="44.57866" lon="1.3473">
        <ele>301</ele>
        <time>2018-03-17T13:29:53Z</time>
      </trkpt>
      <trkpt lat="44.57927" lon="1.34709">
        <ele>303</ele>
        <time>2018-03-17T13:28:53Z</time>
      </trkpt>
      <trkpt lat="44.57911" lon="1.34626">
        <ele>306.9</ele>
      </trkpt>
      <trkpt lat="44.57887" lon="1.34554">
        <ele>300</ele>
        <time>2018-03-17T13:27:53Z</time>
      </trkpt>
      <trkpt lat="44.57892" lon="1.34396">
        <ele>290</ele>
        <time>2018-03-17T13:26:53Z</time>
      </trkpt>
      <trkpt lat="44.57882" lon="1.34296">
        <ele>294</ele>
        <time>2018-03-17T13:25:53Z</time>
      </trkpt>
      <trkpt lat="44.57858" lon="1.34197">
        <ele>294</ele>
        <time>2018-03-17T13:24:53Z</time>
      </trkpt>
      <trkpt lat="44.57831" lon="1.34148">
        <ele>291</ele>
        <time>2018-03-17T13:23:53Z</time>
      </trkpt>
      <trkpt lat="44.57795" lon="1.34125">
        <ele>286</ele>
        <time>2018-03-17T13:22:53Z</time>
      </trkpt>
      <trkpt lat="44.57702" lon="1.33845">
        <ele>287</ele>
        <time>2018-03-17T13:21:53Z</time>
      </trkpt>
      <trkpt lat="44.57672" lon="1.33789">
        <ele>286</ele>
        <time>2018-03-17T13:20:53Z</time>
      </trkpt>
      <trkpt lat="44.57594" lon="1.33767">
        <ele>289</ele>
        <time>2018-03-17T13:19:53Z</time>
      </trkpt>
      <trkpt lat="44.57573" lon="1.33742">
        <ele>290</ele>
        <time>2018-03-17T13:18:53Z</time>
      </trkpt>
      <trkpt lat="44.57461" lon="1.33748">
        <ele>292</ele>
        <time>2018-03-17T13:17:53Z</time>
      </trkpt>
      <trkpt lat="44.57204" lon="1.33707">
        <ele>280</ele>
        <time>2018-03-17T13:16:53Z</time>
      </trkpt>
      <trkpt lat="44.57247" lon="1.33597">
        <ele>278</ele>
        <time>2018-03-17T13:15:53Z</time>
      </trkpt>
      <trkpt lat="44.57173" lon="1.33457">
        <ele>274</ele>
        <time>2018-03-17T13:14:53Z</time>
      </trkpt>
      <trkpt lat="44.57064" lon="1.33313">
        <ele>271</ele>
        <time>2018-03-17T13:13:53Z</time>
      </trkpt>
      <trkpt lat="44.57007" lon="1.33098">
        <ele>266</ele>
        <time>2018-03-17T13:12:53Z</time>
      </trkpt>
      <trkpt lat="44.56926" lon="1.33023">
        <ele>265</ele>
        <time>2018-03-17T13:11:53Z</time>
      </trkpt>
      <trkpt lat="44.56833" lon="1.32892">
        <ele>256</ele>
        <time>2018-03-17T13:10:53Z</time>
      </trkpt>
      <trkpt lat="44.56779" lon="1.32765">
        <ele>251</ele>
        <time>2018-03-17T13:09:53Z</time>
      </trkpt>
      <trkpt lat="44.56763" lon="1.32685">
        <ele>248</ele>
        <time>2018-03-17T13:08:53Z</time>
      </trkpt>
      <trkpt lat="44.56791" lon="1.32588">
        <ele>247</ele>
        <time>2018-03-17T13:07:53Z</time>
      </trkpt>
      <trkpt lat="44.56716" lon="1.32493">
        <ele>240</ele>
        <time>2018-03-17T13:06:53Z</time>
      </trkpt>
      <trkpt lat="44.5659" lon="1.32515">
        <ele>236</ele>
        <time>2018-03-17T13:05:53Z</time>
      </trkpt>
      <trkpt lat="44.56465" lon="1.32544">
        <ele>235</ele>
        <time>2018-03-17T13:04:53Z</time>
      </trkpt>
      <trkpt lat="44.56441" lon="1.32562">
        <ele>233</ele>
        <time>2018-03-17T13:03:53Z</time>
      </trkpt>
      <trkpt lat="44.56387" lon="1.3257">
        <ele>228</ele>
        <time>2018-03-17T13:02:53Z</time>
      </trkpt>
      <trkpt lat="44.5628" lon="1.32689">
        <ele>216</ele>
        <time>2018-03-17T13:01:53Z</time>
      </trkpt>
      <trkpt lat="44.56184" lon="1.32771">
        <ele>209</ele>
        <time>2018-03-17T13:00:53Z</time>
      </trkpt>
      <trkpt lat="44.5611" lon="1.32843">
        <ele>202</ele>
        <time>2018-03-17T12:59:53Z</time>
      </trkpt>
      <trkpt lat="44.56065" lon="1.32823">
        <ele>201</ele>
        <time>2018-03-17T12:58:53Z</time>
      </trkpt>
      <trkpt lat="44.56007" lon="1.3273">
        <ele>191</ele>
        <time>2018-03-17T12:57:53Z</time>
      </trkpt>
      <trkpt lat="44.56008" lon="1.32708">
        <ele>181.7</ele>
      </trkpt>
      <trkpt lat="44.56022" lon="1.32697">
        <ele>191</ele>
        <time>2018-03-17T12:56:53Z</time>
      </trkpt>
      <trkpt lat="44.56004" lon="1.32656">
        <ele>191</ele>
        <time>2018-03-17T12:55:53Z</time>
      </trkpt>
      <trkpt lat="44.55973" lon="1.32674">
        <ele>188</ele>
        <time>2018-03-17T12:54:53Z</time>
      </trkpt>
      <trkpt lat="44.55926" lon="1.32664">
        <ele>188</ele>
        <time>2018-03-17T12:53:53Z</time>
      </trkpt>
      <trkpt lat="44.55885" lon="1.32686">
        <ele>187</ele>
        <time>2018-03-17T12:52:53Z</time>
      </trkpt>
      <trkpt lat="44.55787" lon="1.32661">
        <ele>186</ele>
        <time>2018-03-17T12:51:53Z</time>
      </trkpt>
      <trkpt lat="44.55709" lon="1.32673">
        <ele>183</ele>
        <time>2018-03-17T12:50:53Z</time>
      </trkpt>
      <trkpt lat="44.55623" lon="1.32564">
        <ele>184</ele>
        <time>2018-03-17T12:49:53Z</time>
      </trkpt>
      <trkpt lat="44.55577" lon="1.32541">
        <ele>183</ele>
        <time>2018-03-17T12:48:53Z</time>
      </trkpt>
      <trkpt lat="44.55467" lon="1.32525">
        <ele>180</ele>
        <time>2018-03-17T12:47:53Z</time>
      </trkpt>
      <trkpt lat="44.55413" lon="1.3257">
        <ele>178</ele>
        <time>2018-03-17T12:46:53Z</time>
      </trkpt>
      <trkpt lat="44.55295" lon="1.32725">
        <ele>167</ele>
        <time>2018-03-17T12:45:53Z</time>
      </trkpt>
      <trkpt lat="44.55327" lon="1.32772">
        <ele>164</ele>
        <time>2018-03-17T12:44:53Z</time>
      </trkpt>
      <trkpt lat="44.55211" lon="1.32727">
        <ele>157</ele>
        <extensions>
          <visugpx:TrkExtension xmlns:visugpx="https://www.visugpx.com/editgpx/">
            <visugpx:node>2</visugpx:node>
            </visugpx:TrkExtension>
        </extensions>
      </trkpt>
    </trkseg>
  </trk>
</gpx>